createdAt,value
2017-07-15T00:00:20.600Z,0
2017-07-15T00:01:20.575Z,0
2017-07-15T00:02:20.250Z,0
2017-07-15T00:03:20.533Z,0
2017-07-15T00:04:20.203Z,0
2017-07-15T00:05:20.493Z,0
2017-07-15T00:06:20.471Z,0
2017-07-15T00:07:20.439Z,0
2017-07-15T00:08:20.114Z,0
2017-07-15T00:09:20.087Z,0
2017-07-15T00:10:20.064Z,0
2017-07-15T00:11:20.344Z,0
2017-07-15T00:12:20.016Z,0
2017-07-15T00:13:20.335Z,0
2017-07-15T00:14:19.971Z,0
2017-07-15T00:15:19.946Z,0
2017-07-15T00:16:20.227Z,0
2017-07-15T00:17:19.900Z,0
2017-07-15T00:18:20.179Z,0
2017-07-15T00:19:20.159Z,0
2017-07-15T00:20:20.134Z,0
2017-07-15T00:21:20.118Z,0
2017-07-15T00:22:20.083Z,0
2017-07-15T00:23:19.456Z,0
2017-07-15T00:24:19.761Z,0
2017-07-15T00:25:20.039Z,0
2017-07-15T00:26:19.998Z,0
2017-07-15T00:27:19.978Z,0
2017-07-15T00:28:19.645Z,0
2017-07-15T00:29:19.925Z,0
2017-07-15T00:30:19.902Z,0
2017-07-15T00:31:19.890Z,0
2017-07-15T00:32:19.248Z,0
2017-07-15T00:33:19.835Z,0
2017-07-15T00:34:19.814Z,0
2017-07-15T00:35:19.786Z,0
2017-07-15T00:36:19.160Z,0
2017-07-15T00:37:19.130Z,0
2017-07-15T00:38:19.409Z,0
2017-07-15T00:39:19.700Z,0
2017-07-15T00:40:19.674Z,0
2017-07-15T00:41:19.649Z,0
2017-07-15T00:42:19.322Z,0
2017-07-15T00:43:19.601Z,0
2017-07-15T00:44:19.270Z,0
2017-07-15T00:45:18.945Z,0
2017-07-15T00:46:19.227Z,0
2017-07-15T00:47:19.205Z,0
2017-07-15T00:48:19.180Z,0
2017-07-15T00:49:19.465Z,0
2017-07-15T00:50:19.435Z,0
2017-07-15T00:51:18.805Z,0
2017-07-15T00:52:19.088Z,0
2017-07-15T00:53:19.365Z,0
2017-07-15T00:54:19.346Z,0
2017-07-15T00:55:19.018Z,0
2017-07-15T00:56:19.295Z,0
2017-07-15T00:57:19.275Z,0
2017-07-15T00:58:19.251Z,0
2017-07-15T00:59:19.230Z,0
2017-07-15T01:00:19.206Z,0
2017-07-15T01:01:18.877Z,0
2017-07-15T01:02:19.165Z,0
2017-07-15T01:03:18.832Z,0
2017-07-15T01:04:18.809Z,0
2017-07-15T01:05:18.785Z,0
2017-07-15T01:06:18.457Z,0
2017-07-15T01:07:19.089Z,0
2017-07-15T01:08:18.412Z,0
2017-07-15T01:09:19.003Z,0
2017-07-15T01:10:18.640Z,0
2017-07-15T01:11:18.951Z,0
2017-07-15T01:12:18.854Z,0
2017-07-15T01:13:18.900Z,0
2017-07-15T01:14:18.577Z,0
2017-07-15T01:15:18.555Z,0
2017-07-15T01:16:18.530Z,0
2017-07-15T01:17:18.504Z,0
2017-07-15T01:18:18.787Z,0
2017-07-15T01:19:18.764Z,0
2017-07-15T01:20:18.435Z,0
2017-07-15T01:21:18.722Z,0
2017-07-15T01:22:18.389Z,0
2017-07-15T01:23:18.064Z,0
2017-07-15T01:24:18.340Z,0
2017-07-15T01:25:18.624Z,0
2017-07-15T01:26:18.298Z,0
2017-07-15T01:27:17.969Z,0
2017-07-15T01:28:18.250Z,0
2017-07-15T01:29:18.531Z,0
2017-07-15T01:30:18.205Z,0
2017-07-15T01:31:18.181Z,0
2017-07-15T01:32:18.461Z,0
2017-07-15T01:33:18.437Z,0
2017-07-15T01:34:18.113Z,0
2017-07-15T01:35:18.391Z,0
2017-07-15T01:36:18.369Z,0
2017-07-15T01:37:18.345Z,0
2017-07-15T01:38:18.326Z,0
2017-07-15T01:39:18.298Z,0
2017-07-15T01:40:18.280Z,0
2017-07-15T01:41:18.249Z,0
2017-07-15T01:42:17.923Z,0
2017-07-15T01:43:18.206Z,0
2017-07-15T01:44:17.574Z,0
2017-07-15T01:45:17.556Z,0
2017-07-15T01:46:17.838Z,0
2017-07-15T01:47:17.807Z,0
2017-07-15T01:48:18.087Z,0
2017-07-15T01:49:18.063Z,0
2017-07-15T01:50:17.736Z,0
2017-07-15T01:51:17.713Z,0
2017-07-15T01:52:17.693Z,0
2017-07-15T01:53:17.973Z,0
2017-07-15T01:54:17.949Z,0
2017-07-15T01:55:17.927Z,0
2017-07-15T01:56:17.905Z,0
2017-07-15T01:57:17.881Z,0
2017-07-15T01:58:17.857Z,0
2017-07-15T01:59:17.833Z,0
2017-07-15T02:00:17.950Z,0
2017-07-15T02:01:17.786Z,0
2017-07-15T02:02:17.153Z,0
2017-07-15T02:03:17.741Z,0
2017-07-15T02:04:17.406Z,0
2017-07-15T02:05:17.080Z,0
2017-07-15T02:06:17.368Z,0
2017-07-15T02:07:17.338Z,0
2017-07-15T02:08:17.011Z,0
2017-07-15T02:09:17.612Z,0
2017-07-15T02:10:17.267Z,0
2017-07-15T02:11:17.843Z,0
2017-07-15T02:12:17.223Z,0
2017-07-15T02:13:17.196Z,0
2017-07-15T02:14:17.172Z,0
2017-07-15T02:15:17.455Z,0
2017-07-15T02:16:17.433Z,0
2017-07-15T02:17:17.407Z,0
2017-07-15T02:18:17.385Z,0
2017-07-15T02:19:17.360Z,0
2017-07-15T02:20:17.341Z,0
2017-07-15T02:21:17.315Z,0
2017-07-15T02:22:17.003Z,0
2017-07-15T02:23:16.352Z,0
2017-07-15T02:24:16.634Z,0
2017-07-15T02:25:16.917Z,0
2017-07-15T02:26:17.196Z,0
2017-07-15T02:27:16.867Z,0
2017-07-15T02:28:16.859Z,0
2017-07-15T02:29:16.829Z,0
2017-07-15T02:30:17.106Z,0
2017-07-15T02:31:17.075Z,0
2017-07-15T02:32:16.748Z,0
2017-07-15T02:33:17.029Z,0
2017-07-15T02:34:17.007Z,0
2017-07-15T02:35:16.986Z,0
2017-07-15T02:36:16.655Z,0
2017-07-15T02:37:16.632Z,0
2017-07-15T02:38:16.913Z,0
2017-07-15T02:39:16.586Z,0
2017-07-15T02:40:16.568Z,0
2017-07-15T02:41:16.542Z,0
2017-07-15T02:42:16.516Z,0
2017-07-15T02:43:16.492Z,0
2017-07-15T02:44:16.774Z,0
2017-07-15T02:45:16.143Z,4
2017-07-15T02:46:16.734Z,4
2017-07-15T02:47:16.730Z,0
2017-07-15T02:48:16.069Z,0
2017-07-15T02:49:16.349Z,4
2017-07-15T02:50:16.024Z,4
2017-07-15T02:51:16.307Z,4
2017-07-15T02:52:16.591Z,4
2017-07-15T02:53:16.564Z,4
2017-07-15T02:54:16.545Z,4
2017-07-15T02:55:16.516Z,8
2017-07-15T02:56:16.492Z,4
2017-07-15T02:57:16.161Z,8
2017-07-15T02:58:15.838Z,8
2017-07-15T02:59:15.814Z,8
2017-07-15T03:00:16.094Z,12
2017-07-15T03:01:16.379Z,8
2017-07-15T03:02:16.048Z,12
2017-07-15T03:03:16.327Z,12
2017-07-15T03:04:16.003Z,16
2017-07-15T03:05:16.294Z,16
2017-07-15T03:06:16.264Z,20
2017-07-15T03:07:16.246Z,20
2017-07-15T03:08:15.600Z,24
2017-07-15T03:09:16.193Z,24
2017-07-15T03:10:16.168Z,32
2017-07-15T03:11:16.143Z,32
2017-07-15T03:12:15.834Z,36
2017-07-15T03:13:15.794Z,40
2017-07-15T03:14:15.534Z,40
2017-07-15T03:15:15.743Z,44
2017-07-15T03:16:15.112Z,56
2017-07-15T03:17:16.032Z,64
2017-07-15T03:18:15.978Z,64
2017-07-15T03:19:15.961Z,64
2017-07-15T03:20:15.941Z,80
2017-07-15T03:21:15.908Z,92
2017-07-15T03:22:15.276Z,116
2017-07-15T03:23:15.253Z,144
2017-07-15T03:24:15.532Z,180
2017-07-15T03:25:15.816Z,196
2017-07-15T03:26:15.795Z,212
2017-07-15T03:27:15.159Z,224
2017-07-15T03:28:15.751Z,240
2017-07-15T03:29:15.721Z,240
2017-07-15T03:30:14.786Z,248
2017-07-15T03:31:15.676Z,272
2017-07-15T03:32:15.351Z,292
2017-07-15T03:33:15.629Z,284
2017-07-15T03:34:15.304Z,264
2017-07-15T03:35:15.279Z,212
2017-07-15T03:36:15.603Z,188
2017-07-15T03:37:15.547Z,180
2017-07-15T03:38:15.212Z,176
2017-07-15T03:39:15.490Z,212
2017-07-15T03:40:15.468Z,248
2017-07-15T03:41:15.140Z,260
2017-07-15T03:42:15.117Z,288
2017-07-15T03:43:15.405Z,296
2017-07-15T03:44:15.373Z,300
2017-07-15T03:45:14.741Z,244
2017-07-15T03:46:14.719Z,208
2017-07-15T03:47:14.392Z,208
2017-07-15T03:48:14.369Z,200
2017-07-15T03:49:14.957Z,196
2017-07-15T03:50:15.243Z,204
2017-07-15T03:51:14.911Z,196
2017-07-15T03:52:14.583Z,192
2017-07-15T03:53:14.864Z,208
2017-07-15T03:54:14.839Z,240
2017-07-15T03:55:15.119Z,276
2017-07-15T03:56:15.098Z,288
2017-07-15T03:57:15.075Z,344
2017-07-15T03:58:14.754Z,392
2017-07-15T03:59:15.032Z,400
2017-07-15T04:00:15.005Z,412
2017-07-15T04:01:14.986Z,452
2017-07-15T04:02:14.965Z,500
2017-07-15T04:03:14.939Z,548
2017-07-15T04:04:14.913Z,580
2017-07-15T04:05:14.888Z,656
2017-07-15T04:06:14.871Z,692
2017-07-15T04:07:14.848Z,752
2017-07-15T04:08:14.822Z,800
2017-07-15T04:09:14.798Z,920
2017-07-15T04:10:14.776Z,1056
2017-07-15T04:11:14.752Z,1104
2017-07-15T04:12:14.731Z,1084
2017-07-15T04:13:14.399Z,1112
2017-07-15T04:14:14.684Z,1176
2017-07-15T04:15:14.361Z,1220
2017-07-15T04:16:14.334Z,1304
2017-07-15T04:17:14.613Z,1416
2017-07-15T04:18:14.298Z,1396
2017-07-15T04:19:13.958Z,1356
2017-07-15T04:20:14.551Z,1324
2017-07-15T04:21:14.528Z,1256
2017-07-15T04:22:13.890Z,1128
2017-07-15T04:23:13.563Z,1072
2017-07-15T04:24:14.146Z,1172
2017-07-15T04:25:14.432Z,1232
2017-07-15T04:26:14.406Z,1268
2017-07-15T04:27:14.389Z,1296
2017-07-15T04:28:14.058Z,1276
2017-07-15T04:29:14.347Z,1236
2017-07-15T04:30:14.013Z,1228
2017-07-15T04:31:14.295Z,1156
2017-07-15T04:32:13.974Z,1088
2017-07-15T04:33:14.251Z,1148
2017-07-15T04:34:13.921Z,1324
2017-07-15T04:35:13.595Z,1492
2017-07-15T04:36:13.569Z,1560
2017-07-15T04:37:13.854Z,1552
2017-07-15T04:38:13.525Z,1572
2017-07-15T04:39:14.111Z,1600
2017-07-15T04:40:13.786Z,1748
2017-07-15T04:41:14.069Z,1852
2017-07-15T04:42:14.045Z,1732
2017-07-15T04:43:14.021Z,1656
2017-07-15T04:44:13.996Z,1760
2017-07-15T04:45:13.980Z,1780
2017-07-15T04:46:13.963Z,1804
2017-07-15T04:47:13.939Z,1964
2017-07-15T04:48:13.299Z,2308
2017-07-15T04:49:13.578Z,2616
2017-07-15T04:50:13.556Z,2788
2017-07-15T04:51:13.533Z,2924
2017-07-15T04:52:13.510Z,3112
2017-07-15T04:53:13.489Z,3476
2017-07-15T04:54:13.472Z,3960
2017-07-15T04:55:13.138Z,4204
2017-07-15T04:56:13.420Z,4560
2017-07-15T04:57:13.431Z,5044
2017-07-15T04:58:13.687Z,5528
2017-07-15T04:59:13.670Z,5728
2017-07-15T05:00:13.678Z,6104
2017-07-15T05:01:13.308Z,6808
2017-07-15T05:02:13.292Z,7492
2017-07-15T05:03:13.566Z,7664
2017-07-15T05:04:13.242Z,7484
2017-07-15T05:05:13.524Z,7332
2017-07-15T05:06:13.197Z,6512
2017-07-15T05:07:12.868Z,5872
2017-07-15T05:08:13.454Z,5632
2017-07-15T05:09:12.822Z,5628
2017-07-15T05:10:12.801Z,5328
2017-07-15T05:11:12.826Z,5636
2017-07-15T05:12:13.066Z,6268
2017-07-15T05:13:13.075Z,6020
2017-07-15T05:14:13.020Z,5732
2017-07-15T05:15:13.003Z,5424
2017-07-15T05:16:12.671Z,5280
2017-07-15T05:17:13.266Z,5268
2017-07-15T05:18:13.257Z,5096
2017-07-15T05:19:12.913Z,5464
2017-07-15T05:20:13.198Z,6096
2017-07-15T05:21:13.180Z,6596
2017-07-15T05:22:12.539Z,7056
2017-07-15T05:23:12.516Z,7636
2017-07-15T05:24:12.494Z,7932
2017-07-15T05:25:12.778Z,7520
2017-07-15T05:26:13.060Z,7088
2017-07-15T05:27:13.040Z,7552
2017-07-15T05:28:13.024Z,8448
2017-07-15T05:29:12.693Z,9056
2017-07-15T05:30:12.669Z,10204
2017-07-15T05:31:12.952Z,11316
2017-07-15T05:32:12.627Z,11532
2017-07-15T05:33:12.615Z,11632
2017-07-15T05:34:12.893Z,10948
2017-07-15T05:35:12.879Z,10152
2017-07-15T05:36:12.846Z,10328
2017-07-15T05:37:12.520Z,11388
2017-07-15T05:38:12.499Z,12072
2017-07-15T05:39:12.782Z,11496
2017-07-15T05:40:12.464Z,9872
2017-07-15T05:41:12.441Z,8512
2017-07-15T05:42:12.414Z,7532
2017-07-15T05:43:12.392Z,7388
2017-07-15T05:44:12.686Z,7100
2017-07-15T05:45:12.660Z,7448
2017-07-15T05:46:11.720Z,7556
2017-07-15T05:47:12.618Z,6484
2017-07-15T05:48:12.294Z,5392
2017-07-15T05:49:12.577Z,5188
2017-07-15T05:50:12.548Z,6116
2017-07-15T05:51:11.931Z,6244
2017-07-15T05:52:12.509Z,5504
2017-07-15T05:53:12.495Z,6308
2017-07-15T05:54:12.163Z,6580
2017-07-15T05:55:12.447Z,6664
2017-07-15T05:56:12.118Z,6968
2017-07-15T05:57:12.399Z,7524
2017-07-15T05:58:12.389Z,9028
2017-07-15T05:59:12.362Z,9320
2017-07-15T06:00:11.726Z,9200
2017-07-15T06:01:11.403Z,7888
2017-07-15T06:02:12.298Z,6324
2017-07-15T06:03:12.280Z,6696
2017-07-15T06:04:12.257Z,7092
2017-07-15T06:05:12.232Z,7776
2017-07-15T06:06:11.911Z,9776
2017-07-15T06:07:11.584Z,12492
2017-07-15T06:08:12.171Z,15232
2017-07-15T06:09:12.145Z,17152
2017-07-15T06:10:11.871Z,17792
2017-07-15T06:11:11.801Z,16476
2017-07-15T06:12:11.780Z,14076
2017-07-15T06:13:11.760Z,13408
2017-07-15T06:14:11.434Z,14372
2017-07-15T06:15:12.061Z,15536
2017-07-15T06:16:11.693Z,17204
2017-07-15T06:17:11.984Z,18144
2017-07-15T06:18:11.351Z,17408
2017-07-15T06:19:11.939Z,18464
2017-07-15T06:20:11.926Z,19648
2017-07-15T06:21:11.595Z,19552
2017-07-15T06:22:10.964Z,18976
2017-07-15T06:23:11.553Z,18368
2017-07-15T06:24:11.531Z,16924
2017-07-15T06:25:11.514Z,13660
2017-07-15T06:26:11.494Z,11512
2017-07-15T06:27:11.776Z,10288
2017-07-15T06:28:11.460Z,9388
2017-07-15T06:29:11.789Z,8312
2017-07-15T06:30:11.724Z,7660
2017-07-15T06:31:11.696Z,7492
2017-07-15T06:32:11.683Z,7720
2017-07-15T06:33:11.355Z,8276
2017-07-15T06:34:11.030Z,8572
2017-07-15T06:35:11.635Z,8664
2017-07-15T06:36:11.297Z,8620
2017-07-15T06:37:11.631Z,8740
2017-07-15T06:38:11.255Z,9624
2017-07-15T06:39:11.548Z,9896
2017-07-15T06:40:11.523Z,9456
2017-07-15T06:41:11.203Z,9900
2017-07-15T06:42:11.486Z,10920
2017-07-15T06:43:11.462Z,12044
2017-07-15T06:44:11.171Z,12676
2017-07-15T06:45:11.117Z,12632
2017-07-15T06:46:11.400Z,13020
2017-07-15T06:47:11.381Z,13756
2017-07-15T06:48:11.055Z,13768
2017-07-15T06:49:11.344Z,14672
2017-07-15T06:50:11.328Z,15688
2017-07-15T06:51:11.297Z,15112
2017-07-15T06:52:10.988Z,14212
2017-07-15T06:53:10.958Z,15708
2017-07-15T06:54:10.936Z,17504
2017-07-15T06:55:10.914Z,17600
2017-07-15T06:56:11.239Z,16572
2017-07-15T06:57:10.570Z,15700
2017-07-15T06:58:10.855Z,15236
2017-07-15T06:59:11.140Z,15556
2017-07-15T07:00:11.119Z,15480
2017-07-15T07:01:10.793Z,14424
2017-07-15T07:02:10.779Z,14216
2017-07-15T07:03:10.757Z,14648
2017-07-15T07:04:10.431Z,13812
2017-07-15T07:05:10.413Z,12044
2017-07-15T07:06:11.000Z,11004
2017-07-15T07:07:10.983Z,11832
2017-07-15T07:08:10.659Z,13384
2017-07-15T07:09:10.341Z,15420
2017-07-15T07:10:10.316Z,16592
2017-07-15T07:11:10.605Z,18912
2017-07-15T07:12:11.367Z,22016
2017-07-15T07:13:10.866Z,21632
2017-07-15T07:14:11.040Z,18816
2017-07-15T07:15:09.914Z,16128
2017-07-15T07:16:10.809Z,15888
2017-07-15T07:17:10.485Z,16068
2017-07-15T07:18:10.476Z,15876
2017-07-15T07:19:10.448Z,16428
2017-07-15T07:20:10.126Z,17128
2017-07-15T07:21:10.106Z,19104
2017-07-15T07:22:10.392Z,20992
2017-07-15T07:23:10.065Z,21984
2017-07-15T07:24:10.047Z,22752
2017-07-15T07:25:10.334Z,23616
2017-07-15T07:26:10.314Z,24000
2017-07-15T07:27:10.605Z,24160
2017-07-15T07:28:09.975Z,23328
2017-07-15T07:29:10.563Z,21824
2017-07-15T07:30:10.243Z,18752
2017-07-15T07:31:10.891Z,18112
2017-07-15T07:32:10.205Z,19136
2017-07-15T07:33:10.186Z,20928
2017-07-15T07:34:09.863Z,21536
2017-07-15T07:35:10.457Z,19392
2017-07-15T07:36:09.827Z,17696
2017-07-15T07:37:10.119Z,16664
2017-07-15T07:38:10.105Z,20256
2017-07-15T07:39:09.773Z,23520
2017-07-15T07:40:10.361Z,23232
2017-07-15T07:41:10.348Z,22880
2017-07-15T07:42:10.028Z,22368
2017-07-15T07:43:10.312Z,21280
2017-07-15T07:44:10.293Z,20416
2017-07-15T07:45:10.017Z,20096
2017-07-15T07:46:10.257Z,19808
2017-07-15T07:47:09.630Z,19904
2017-07-15T07:48:10.227Z,20256
2017-07-15T07:49:09.901Z,21216
2017-07-15T07:50:10.187Z,22656
2017-07-15T07:51:09.868Z,23840
2017-07-15T07:52:10.168Z,24608
2017-07-15T07:53:10.136Z,25088
2017-07-15T07:54:09.507Z,24800
2017-07-15T07:55:10.137Z,24832
2017-07-15T07:56:09.471Z,25504
2017-07-15T07:57:09.911Z,26624
2017-07-15T07:58:09.743Z,27168
2017-07-15T07:59:09.723Z,26720
2017-07-15T08:00:10.012Z,25824
2017-07-15T08:01:09.687Z,25376
2017-07-15T08:02:10.004Z,25024
2017-07-15T08:03:09.957Z,25024
2017-07-15T08:04:09.947Z,25632
2017-07-15T08:05:09.622Z,26880
2017-07-15T08:06:09.612Z,28704
2017-07-15T08:07:09.896Z,31008
2017-07-15T08:08:09.878Z,33568
2017-07-15T08:09:09.862Z,35776
2017-07-15T08:10:09.853Z,36192
2017-07-15T08:11:09.825Z,33312
2017-07-15T08:12:09.511Z,28064
2017-07-15T08:13:09.848Z,27840
2017-07-15T08:14:09.475Z,33856
2017-07-15T08:15:09.467Z,33056
2017-07-15T08:16:09.442Z,32320
2017-07-15T08:17:09.730Z,32800
2017-07-15T08:18:09.411Z,33504
2017-07-15T08:19:09.089Z,34656
2017-07-15T08:20:09.377Z,48864
2017-07-15T08:21:09.729Z,38752
2017-07-15T08:22:09.350Z,34624
2017-07-15T08:23:09.335Z,33056
2017-07-15T08:24:09.313Z,29824
2017-07-15T08:25:09.302Z,27872
2017-07-15T08:26:09.592Z,27552
2017-07-15T08:27:09.576Z,30208
2017-07-15T08:28:09.560Z,34016
2017-07-15T08:29:08.935Z,38016
2017-07-15T08:30:08.922Z,33504
2017-07-15T08:31:08.902Z,44320
2017-07-15T08:32:08.585Z,28352
2017-07-15T08:33:09.497Z,28992
2017-07-15T08:34:09.477Z,30016
2017-07-15T08:35:09.704Z,28928
2017-07-15T08:36:09.438Z,27136
2017-07-15T08:37:09.424Z,24768
2017-07-15T08:38:09.412Z,23328
2017-07-15T08:39:09.395Z,22016
2017-07-15T08:40:09.385Z,20640
2017-07-15T08:41:09.059Z,19232
2017-07-15T08:42:09.045Z,17696
2017-07-15T08:43:09.343Z,16240
2017-07-15T08:44:09.320Z,15304
2017-07-15T08:45:08.998Z,14816
2017-07-15T08:46:08.982Z,14684
2017-07-15T08:47:08.662Z,14880
2017-07-15T08:48:08.647Z,15508
2017-07-15T08:49:08.937Z,16784
2017-07-15T08:50:08.615Z,18400
2017-07-15T08:51:09.213Z,19872
2017-07-15T08:52:09.206Z,21312
2017-07-15T08:53:08.876Z,22656
2017-07-15T08:54:08.853Z,24000
2017-07-15T08:55:09.143Z,24832
2017-07-15T08:56:08.516Z,22240
2017-07-15T08:57:08.805Z,20256
2017-07-15T08:58:09.090Z,19168
2017-07-15T08:59:09.145Z,19520
2017-07-15T09:00:09.068Z,20672
2017-07-15T09:01:08.736Z,22112
2017-07-15T09:02:08.722Z,23168
2017-07-15T09:03:08.218Z,23232
2017-07-15T09:04:08.992Z,23264
2017-07-15T09:05:08.978Z,23264
2017-07-15T09:06:08.655Z,23392
2017-07-15T09:07:08.635Z,22976
2017-07-15T09:08:08.370Z,23488
2017-07-15T09:09:08.910Z,23072
2017-07-15T09:10:08.590Z,22336
2017-07-15T09:11:08.573Z,21184
2017-07-15T09:12:08.010Z,20000
2017-07-15T09:13:08.231Z,18208
2017-07-15T09:14:09.805Z,16088
2017-07-15T09:15:08.198Z,14164
2017-07-15T09:16:08.179Z,12952
2017-07-15T09:17:08.467Z,12272
2017-07-15T09:18:08.755Z,11784
2017-07-15T09:19:08.752Z,11916
2017-07-15T09:20:08.724Z,12464
2017-07-15T09:21:08.094Z,13344
2017-07-15T09:22:08.684Z,14328
2017-07-15T09:23:08.669Z,15228
2017-07-15T09:24:08.650Z,16284
2017-07-15T09:25:08.330Z,18144
2017-07-15T09:26:08.008Z,20544
2017-07-15T09:27:08.600Z,23168
2017-07-15T09:28:08.581Z,26176
2017-07-15T09:29:08.563Z,30336
2017-07-15T09:30:07.937Z,38336
2017-07-15T09:31:08.533Z,165184
2017-07-15T09:32:08.511Z,47808
2017-07-15T09:33:08.137Z,49792
2017-07-15T09:34:07.915Z,35968
2017-07-15T09:35:09.313Z,32608
2017-07-15T09:36:08.151Z,26592
2017-07-15T09:37:08.612Z,22656
2017-07-15T09:38:08.115Z,20736
2017-07-15T09:39:08.101Z,20256
2017-07-15T09:40:08.083Z,20224
2017-07-15T09:41:08.198Z,20032
2017-07-15T09:42:07.746Z,19488
2017-07-15T09:43:08.339Z,18528
2017-07-15T09:44:07.715Z,17372
2017-07-15T09:45:08.006Z,16444
2017-07-15T09:46:07.684Z,15616
2017-07-15T09:47:07.669Z,15000
2017-07-15T09:48:08.258Z,14508
2017-07-15T09:49:07.941Z,17396
2017-07-15T09:50:07.975Z,90336
2017-07-15T09:51:07.910Z,72544
2017-07-15T09:52:07.284Z,89952
2017-07-15T09:53:07.696Z,90208
2017-07-15T09:54:07.559Z,88608
2017-07-15T09:55:07.854Z,89952
2017-07-15T09:56:07.829Z,88928
2017-07-15T09:57:07.516Z,88064
2017-07-15T09:58:07.808Z,90592
2017-07-15T09:59:08.099Z,95360
2017-07-15T10:00:07.479Z,97248
2017-07-15T10:01:07.771Z,98304
2017-07-15T10:02:07.766Z,96608
2017-07-15T10:03:08.053Z,100704
2017-07-15T10:04:07.525Z,104128
2017-07-15T10:05:08.094Z,105952
2017-07-15T10:06:07.449Z,42880
2017-07-15T10:07:07.712Z,30208
2017-07-15T10:08:07.703Z,28896
2017-07-15T10:09:07.391Z,29248
2017-07-15T10:10:07.981Z,29312
2017-07-15T10:11:07.687Z,30144
2017-07-15T10:12:07.671Z,31072
2017-07-15T10:13:07.663Z,35168
2017-07-15T10:14:07.355Z,21248
2017-07-15T10:15:07.641Z,20032
2017-07-15T10:16:07.672Z,20320
2017-07-15T10:17:07.620Z,22688
2017-07-15T10:18:07.660Z,101728
2017-07-15T10:19:07.901Z,17136
2017-07-15T10:20:08.579Z,16400
2017-07-15T10:21:07.580Z,16192
2017-07-15T10:22:07.569Z,16092
2017-07-15T10:23:07.554Z,16384
2017-07-15T10:24:07.876Z,102624
2017-07-15T10:25:07.575Z,103328
2017-07-15T10:26:07.823Z,54816
2017-07-15T10:27:07.810Z,17300
2017-07-15T10:28:07.189Z,19008
2017-07-15T10:29:07.483Z,71296
2017-07-15T10:30:07.166Z,33216
2017-07-15T10:31:07.779Z,26752
2017-07-15T10:32:07.445Z,26624
2017-07-15T10:33:07.434Z,34208
2017-07-15T10:34:07.728Z,15628
2017-07-15T10:35:07.414Z,13888
2017-07-15T10:36:07.706Z,12152
2017-07-15T10:37:07.699Z,10148
2017-07-15T10:38:07.687Z,8416
2017-07-15T10:39:07.369Z,6852
2017-07-15T10:40:07.356Z,5496
2017-07-15T10:41:07.040Z,4800
2017-07-15T10:42:07.333Z,4480
2017-07-15T10:43:07.318Z,4372
2017-07-15T10:44:07.308Z,4680
2017-07-15T10:45:07.602Z,5032
2017-07-15T10:46:06.978Z,5556
2017-07-15T10:47:06.962Z,6212
2017-07-15T10:48:07.252Z,7080
2017-07-15T10:49:07.545Z,8016
2017-07-15T10:50:07.529Z,8784
2017-07-15T10:51:07.206Z,9524
2017-07-15T10:52:07.479Z,9992
2017-07-15T10:53:07.179Z,10456
2017-07-15T10:54:07.163Z,11232
2017-07-15T10:55:06.902Z,12368
2017-07-15T10:56:07.155Z,14328
2017-07-15T10:57:06.812Z,16276
2017-07-15T10:58:07.398Z,17984
2017-07-15T10:59:07.091Z,19136
2017-07-15T11:00:07.093Z,19808
2017-07-15T11:01:07.047Z,21568
2017-07-15T11:02:07.032Z,23072
2017-07-15T11:03:06.459Z,23904
2017-07-15T11:04:07.001Z,26688
2017-07-15T11:05:06.376Z,28032
2017-07-15T11:06:06.968Z,29600
2017-07-15T11:07:06.649Z,31200
2017-07-15T11:08:06.881Z,31680
2017-07-15T11:09:06.920Z,31712
2017-07-15T11:10:06.601Z,32576
2017-07-15T11:11:06.281Z,34176
2017-07-15T11:12:06.964Z,39008
2017-07-15T11:13:06.401Z,39328
2017-07-15T11:14:06.539Z,29248
2017-07-15T11:15:06.529Z,27520
2017-07-15T11:16:06.811Z,26400
2017-07-15T11:17:07.134Z,25472
2017-07-15T11:18:06.785Z,24864
2017-07-15T11:19:07.073Z,23840
2017-07-15T11:20:06.450Z,22400
2017-07-15T11:21:07.044Z,21664
2017-07-15T11:22:06.419Z,21216
2017-07-15T11:23:06.099Z,20416
2017-07-15T11:24:06.692Z,19872
2017-07-15T11:25:06.684Z,19648
2017-07-15T11:26:06.967Z,19168
2017-07-15T11:27:06.954Z,18048
2017-07-15T11:28:06.634Z,17568
2017-07-15T11:29:06.010Z,18144
2017-07-15T11:30:06.910Z,18752
2017-07-15T11:31:06.589Z,19616
2017-07-15T11:32:06.885Z,19680
2017-07-15T11:33:06.869Z,20352
2017-07-15T11:34:06.239Z,21248
2017-07-15T11:35:06.527Z,22176
2017-07-15T11:36:06.518Z,23776
2017-07-15T11:37:06.194Z,24960
2017-07-15T11:38:06.783Z,25888
2017-07-15T11:39:06.775Z,26528
2017-07-15T11:40:06.449Z,27360
2017-07-15T11:41:05.830Z,28384
2017-07-15T11:42:06.429Z,29568
2017-07-15T11:43:06.406Z,29824
2017-07-15T11:44:06.387Z,29984
2017-07-15T11:45:05.764Z,30464
2017-07-15T11:46:06.055Z,30592
2017-07-15T11:47:06.040Z,31008
2017-07-15T11:48:06.026Z,30880
2017-07-15T11:49:05.706Z,31328
2017-07-15T11:50:06.300Z,31360
2017-07-15T11:51:05.979Z,30944
2017-07-15T11:52:06.577Z,31296
2017-07-15T11:53:05.952Z,35136
2017-07-15T11:54:06.241Z,47072
2017-07-15T11:55:05.934Z,74656
2017-07-15T11:56:06.223Z,84480
2017-07-15T11:57:06.509Z,74528
2017-07-15T11:58:06.513Z,95072
2017-07-15T11:59:05.870Z,87808
2017-07-15T12:00:05.859Z,77856
2017-07-15T12:01:06.148Z,89984
2017-07-15T12:02:06.138Z,80512
2017-07-15T12:03:05.820Z,81984
2017-07-15T12:04:05.809Z,85472
2017-07-15T12:05:05.801Z,86560
2017-07-15T12:06:06.403Z,91136
2017-07-15T12:07:06.392Z,93792
2017-07-15T12:08:05.775Z,84608
2017-07-15T12:09:06.071Z,94240
2017-07-15T12:10:06.386Z,78336
2017-07-15T12:11:05.750Z,57024
2017-07-15T12:12:06.063Z,69568
2017-07-15T12:13:06.046Z,76544
2017-07-15T12:14:06.034Z,61600
2017-07-15T12:15:06.026Z,31136
2017-07-15T12:16:06.329Z,37664
2017-07-15T12:17:06.016Z,56576
2017-07-15T12:18:05.398Z,88960
2017-07-15T12:19:05.700Z,85216
2017-07-15T12:20:05.993Z,44128
2017-07-15T12:21:05.683Z,82208
2017-07-15T12:22:05.976Z,89760
2017-07-15T12:23:05.969Z,84256
2017-07-15T12:24:05.968Z,90560
2017-07-15T12:25:05.653Z,86272
2017-07-15T12:26:05.951Z,95808
2017-07-15T12:27:06.247Z,82784
2017-07-15T12:28:05.647Z,82272
2017-07-15T12:29:06.233Z,87296
2017-07-15T12:30:05.318Z,93536
2017-07-15T12:31:06.227Z,74240
2017-07-15T12:32:05.613Z,73920
2017-07-15T12:33:05.913Z,83136
2017-07-15T12:34:06.204Z,67136
2017-07-15T12:35:05.597Z,59744
2017-07-15T12:36:06.199Z,62112
2017-07-15T12:37:05.584Z,71968
2017-07-15T12:38:05.889Z,77088
2017-07-15T12:39:05.880Z,83168
2017-07-15T12:40:05.267Z,94464
2017-07-15T12:41:05.265Z,90240
2017-07-15T12:42:05.258Z,88224
2017-07-15T12:43:05.862Z,48352
2017-07-15T12:44:05.858Z,36576
2017-07-15T12:45:05.549Z,36640
2017-07-15T12:46:05.850Z,29312
2017-07-15T12:47:06.149Z,33312
2017-07-15T12:48:06.142Z,31904
2017-07-15T12:49:05.831Z,31808
2017-07-15T12:50:05.829Z,29568
2017-07-15T12:51:05.516Z,32128
2017-07-15T12:52:05.813Z,32000
2017-07-15T12:53:05.507Z,48128
2017-07-15T12:54:05.190Z,67232
2017-07-15T12:55:06.096Z,75968
2017-07-15T12:56:05.482Z,83552
2017-07-15T12:57:05.809Z,90400
2017-07-15T12:58:05.777Z,80320
2017-07-15T12:59:05.758Z,85312
2017-07-15T13:00:05.447Z,82400
2017-07-15T13:01:05.751Z,84192
2017-07-15T13:02:05.741Z,74304
2017-07-15T13:03:05.429Z,73376
2017-07-15T13:04:05.423Z,71968
2017-07-15T13:05:05.721Z,52448
2017-07-15T13:06:05.713Z,42432
2017-07-15T13:07:06.008Z,55712
2017-07-15T13:08:05.703Z,63456
2017-07-15T13:09:05.392Z,34944
2017-07-15T13:10:05.692Z,31840
2017-07-15T13:11:05.683Z,31360
2017-07-15T13:12:05.676Z,31424
2017-07-15T13:13:05.365Z,30816
2017-07-15T13:14:05.356Z,31776
2017-07-15T13:15:05.655Z,31776
2017-07-15T13:16:05.645Z,30176
2017-07-15T13:17:05.333Z,28608
2017-07-15T13:18:05.626Z,29088
2017-07-15T13:19:05.624Z,29536
2017-07-15T13:20:05.918Z,30752
2017-07-15T13:21:05.296Z,31520
2017-07-15T13:22:05.898Z,32512
2017-07-15T13:23:05.578Z,32448
2017-07-15T13:24:05.570Z,36128
2017-07-15T13:25:05.259Z,62304